createdAt,value
2023-01-13T00:01:09.020Z,4.85
2023-01-13T00:03:37.948Z,4.84
2023-01-13T00:06:07.832Z,4.95
2023-01-13T00:08:37.551Z,5.07
2023-01-13T00:11:05.837Z,5.06
2023-01-13T00:13:35.498Z,5.08
2023-01-13T00:16:05.981Z,5.06
2023-01-13T00:18:34.687Z,5.04
2023-01-13T00:21:03.841Z,5.05
2023-01-13T00:23:34.454Z,5.05
2023-01-13T00:26:07.046Z,5.00
2023-01-13T00:28:35.450Z,4.92
2023-01-13T00:31:07.279Z,4.85
2023-01-13T00:33:35.807Z,4.78
2023-01-13T00:36:05.806Z,4.73
2023-01-13T00:38:35.749Z,4.65
2023-01-13T00:41:07.567Z,4.60
2023-01-13T00:43:37.116Z,4.62
2023-01-13T00:46:07.218Z,4.63
2023-01-13T00:48:36.001Z,4.67
2023-01-13T00:51:06.521Z,4.63
2023-01-13T00:53:40.972Z,4.61
2023-01-13T00:56:15.075Z,4.56
2023-01-13T00:58:44.433Z,4.66
2023-01-13T01:01:15.171Z,4.71
2023-01-13T01:03:43.506Z,4.72
2023-01-13T01:06:14.300Z,4.70
2023-01-13T01:08:43.488Z,4.74
2023-01-13T01:11:15.399Z,4.72
2023-01-13T01:13:43.792Z,4.71
2023-01-13T01:16:13.911Z,4.72
2023-01-13T01:18:44.499Z,4.70
2023-01-13T01:21:13.344Z,4.71
2023-01-13T01:23:42.655Z,4.73
2023-01-13T01:26:14.975Z,4.67
2023-01-13T01:28:44.334Z,4.66
2023-01-13T01:31:15.110Z,4.67
2023-01-13T01:33:43.433Z,4.68
2023-01-13T01:36:13.248Z,4.63
2023-01-13T01:38:41.626Z,4.58
2023-01-13T01:41:13.705Z,4.62
2023-01-13T01:44:07.456Z,4.67
2023-01-13T01:46:38.510Z,4.69
2023-01-13T01:49:13.906Z,4.70
2023-01-13T01:51:45.742Z,4.71
2023-01-13T01:54:19.549Z,4.73
2023-01-13T01:56:47.989Z,4.77
2023-01-13T01:59:18.136Z,4.73
2023-01-13T02:01:47.139Z,4.71
2023-01-13T02:04:18.579Z,4.68
2023-01-13T02:06:48.901Z,4.66
2023-01-13T02:09:18.348Z,4.61
2023-01-13T02:12:03.891Z,4.59
2023-01-13T02:14:35.210Z,4.55
2023-01-13T02:17:19.483Z,4.52
2023-01-13T02:20:20.253Z,4.53
2023-01-13T02:23:34.712Z,4.52
2023-01-13T02:26:26.750Z,4.51
2023-01-13T02:29:28.454Z,4.59
2023-01-13T02:32:03.557Z,4.64
2023-01-13T02:34:39.421Z,4.70
2023-01-13T02:37:15.069Z,4.68
2023-01-13T02:39:49.879Z,4.65
2023-01-13T02:42:38.999Z,4.59
2023-01-13T02:45:13.560Z,4.57
2023-01-13T02:47:47.508Z,4.52
2023-01-13T02:50:19.067Z,4.50
2023-01-13T02:52:51.887Z,4.46
2023-01-13T02:55:25.817Z,4.46
2023-01-13T02:57:56.699Z,4.49
2023-01-13T03:00:25.438Z,4.49
2023-01-13T03:02:55.032Z,4.45
2023-01-13T03:05:24.094Z,4.47
2023-01-13T03:08:17.899Z,4.54
2023-01-13T03:11:02.416Z,4.57
2023-01-13T03:13:54.852Z,4.49
2023-01-13T03:16:31.089Z,4.44
2023-01-13T03:19:14.641Z,4.47
2023-01-13T03:21:52.559Z,4.46
2023-01-13T03:24:27.473Z,4.47
2023-01-13T03:27:01.605Z,4.45
2023-01-13T03:29:35.790Z,4.46
2023-01-13T03:32:08.183Z,4.49
2023-01-13T03:34:44.244Z,4.50
2023-01-13T03:37:15.042Z,4.52
2023-01-13T03:39:49.059Z,4.52
2023-01-13T03:42:21.685Z,4.57
2023-01-13T03:44:55.921Z,4.53
2023-01-13T03:47:29.117Z,4.51
2023-01-13T03:50:05.494Z,4.53
2023-01-13T03:52:37.757Z,4.57
2023-01-13T03:55:11.889Z,4.61
2023-01-13T03:57:48.779Z,4.61
2023-01-13T04:00:18.225Z,4.61
2023-01-13T04:02:52.313Z,4.62
2023-01-13T04:05:22.461Z,4.60
2023-01-13T04:07:56.242Z,4.62
2023-01-13T04:10:29.059Z,4.63
2023-01-13T04:13:01.753Z,4.67
2023-01-13T04:15:33.710Z,4.68
2023-01-13T04:18:13.081Z,4.67
2023-01-13T04:20:43.510Z,4.66
2023-01-13T04:23:13.613Z,4.71
2023-01-13T04:25:42.361Z,4.75
2023-01-13T04:28:11.544Z,4.76
2023-01-13T04:30:40.206Z,4.78
2023-01-13T04:33:08.754Z,4.74
2023-01-13T04:35:38.178Z,4.73
2023-01-13T04:38:09.039Z,4.74
2023-01-13T04:40:37.560Z,4.76
2023-01-13T04:43:06.210Z,4.80
2023-01-13T04:45:34.670Z,4.82
2023-01-13T04:48:03.159Z,4.85
2023-01-13T04:50:31.383Z,4.87
2023-01-13T04:53:00.489Z,4.90
2023-01-13T04:55:30.030Z,4.93
2023-01-13T04:58:03.085Z,4.97
2023-01-13T05:00:32.094Z,4.97
2023-01-13T05:03:00.579Z,4.97
2023-01-13T05:05:29.859Z,4.93
2023-01-13T05:07:58.103Z,4.89
2023-01-13T05:10:26.520Z,4.82
2023-01-13T05:13:13.529Z,4.76
2023-01-13T05:16:00.301Z,4.60
2023-01-13T05:18:30.937Z,4.39
2023-01-13T05:20:59.156Z,4.17
2023-01-13T05:23:44.718Z,4.07
2023-01-13T05:26:12.862Z,3.94
2023-01-13T05:28:42.383Z,3.87
2023-01-13T05:31:12.248Z,3.88
2023-01-13T05:33:40.586Z,3.91
2023-01-13T05:36:09.539Z,3.93
2023-01-13T05:38:37.741Z,3.95
2023-01-13T05:41:23.409Z,4.03
2023-01-13T05:43:52.951Z,4.05
2023-01-13T05:46:21.360Z,4.03
2023-01-13T05:48:49.539Z,4.03
2023-01-13T05:51:17.717Z,4.12
2023-01-13T05:53:45.954Z,4.18
2023-01-13T05:56:14.204Z,4.22
2023-01-13T05:58:42.406Z,4.25
2023-01-13T06:01:11.912Z,4.31
2023-01-13T06:03:40.181Z,4.28
2023-01-13T06:06:09.182Z,4.32
2023-01-13T06:08:39.523Z,4.38
2023-01-13T06:11:08.267Z,4.41
2023-01-13T06:13:36.547Z,4.45
2023-01-13T06:16:04.888Z,4.47
2023-01-13T06:18:34.360Z,4.49
2023-01-13T06:21:02.568Z,4.50
2023-01-13T06:23:35.044Z,4.54
2023-01-13T06:26:11.115Z,4.58
2023-01-13T06:28:39.349Z,4.62
2023-01-13T06:31:09.518Z,4.64
2023-01-13T06:33:42.144Z,4.68
2023-01-13T06:36:17.352Z,4.70
2023-01-13T06:38:48.943Z,4.72
2023-01-13T06:41:18.009Z,4.73
2023-01-13T06:43:45.169Z,4.76
2023-01-13T06:46:13.438Z,4.81
2023-01-13T06:48:42.974Z,4.81
2023-01-13T06:51:11.211Z,4.85
2023-01-13T06:53:39.458Z,4.86
2023-01-13T06:56:08.262Z,4.84
2023-01-13T06:58:36.523Z,4.78
2023-01-13T07:01:04.939Z,4.74
2023-01-13T07:03:33.191Z,4.74
2023-01-13T07:06:02.875Z,4.78
2023-01-13T07:08:31.138Z,4.81
2023-01-13T07:10:59.579Z,4.82
2023-01-13T07:13:45.216Z,4.80
2023-01-13T07:16:14.037Z,4.77
2023-01-13T07:18:42.165Z,4.71
2023-01-13T07:21:18.811Z,4.68
2023-01-13T07:23:48.532Z,4.72
2023-01-13T07:26:17.334Z,4.74
2023-01-13T07:28:45.602Z,4.75
2023-01-13T07:31:16.123Z,4.77
2023-01-13T07:33:44.579Z,4.78
2023-01-13T07:36:14.516Z,4.80
2023-01-13T07:38:44.553Z,4.81
2023-01-13T07:41:31.991Z,4.80
2023-01-13T07:44:04.960Z,4.80
2023-01-13T07:46:33.691Z,4.76
2023-01-13T07:49:01.957Z,4.71
2023-01-13T07:51:31.801Z,4.69
2023-01-13T07:53:59.944Z,4.66
2023-01-13T07:56:28.239Z,4.63
2023-01-13T07:58:56.467Z,4.65
2023-01-13T08:01:24.835Z,4.64
2023-01-13T08:03:53.116Z,4.62
2023-01-13T08:06:21.494Z,4.61
2023-01-13T08:08:51.102Z,4.62
2023-01-13T08:11:22.093Z,4.70
2023-01-13T08:13:51.760Z,4.72
2023-01-13T08:16:20.240Z,4.67
2023-01-13T08:18:48.713Z,4.59
2023-01-13T08:21:17.599Z,4.55
2023-01-13T08:23:46.585Z,4.56
2023-01-13T08:26:18.451Z,4.58
2023-01-13T08:28:47.337Z,4.57
2023-01-13T08:31:20.108Z,4.60
2023-01-13T08:33:48.703Z,4.70
2023-01-13T08:36:18.589Z,4.74
2023-01-13T08:38:47.096Z,4.83
2023-01-13T08:41:38.822Z,4.87
2023-01-13T08:44:09.356Z,4.89
2023-01-13T08:46:38.038Z,4.89
2023-01-13T08:49:06.414Z,4.87
2023-01-13T08:51:35.095Z,4.82
2023-01-13T08:54:03.393Z,4.78
2023-01-13T08:56:35.441Z,4.75
2023-01-13T08:59:04.465Z,4.76
2023-01-13T09:01:34.192Z,4.83
2023-01-13T09:04:02.640Z,4.84
2023-01-13T09:06:31.022Z,4.85
2023-01-13T09:08:59.731Z,4.89
2023-01-13T09:11:52.411Z,4.95
2023-01-13T09:14:21.603Z,5.01
2023-01-13T09:16:49.841Z,5.03
2023-01-13T09:19:18.235Z,5.07
2023-01-13T09:21:46.614Z,5.10
2023-01-13T09:24:15.006Z,5.16
2023-01-13T09:26:44.483Z,5.18
2023-01-13T09:29:12.921Z,5.19
2023-01-13T09:31:44.007Z,5.22
2023-01-13T09:34:33.930Z,5.24
2023-01-13T09:37:03.475Z,5.35
2023-01-13T09:39:32.951Z,5.40
2023-01-13T09:42:30.446Z,5.44
2023-01-13T09:45:05.761Z,5.45
2023-01-13T09:47:41.295Z,5.43
2023-01-13T09:50:30.782Z,5.42
2023-01-13T09:53:00.727Z,5.46
2023-01-13T09:55:34.770Z,5.53
2023-01-13T09:58:12.575Z,5.59
2023-01-13T10:00:47.233Z,5.64
2023-01-13T10:03:22.664Z,5.65
2023-01-13T10:05:57.934Z,5.62
2023-01-13T10:08:29.521Z,5.59
2023-01-13T10:11:00.487Z,5.57
2023-01-13T10:13:31.548Z,5.58
2023-01-13T10:16:14.225Z,5.58
2023-01-13T10:18:55.238Z,5.60
2023-01-13T10:21:45.733Z,5.64
2023-01-13T10:24:25.293Z,5.68
2023-01-13T10:27:04.388Z,5.70
2023-01-13T10:29:34.752Z,5.72
2023-01-13T10:32:03.032Z,5.72
2023-01-13T10:34:31.614Z,5.75
2023-01-13T10:37:03.318Z,5.78
2023-01-13T10:39:41.740Z,5.78
2023-01-13T10:42:15.396Z,5.79
2023-01-13T10:44:53.021Z,5.81
2023-01-13T10:47:25.181Z,5.88
2023-01-13T10:50:22.392Z,5.93
2023-01-13T10:53:00.172Z,6.00
2023-01-13T10:55:32.055Z,6.04
2023-01-13T10:58:13.500Z,6.03
2023-01-13T11:00:43.275Z,5.97
2023-01-13T11:03:22.896Z,5.92
2023-01-13T11:05:54.119Z,5.97
2023-01-13T11:08:25.223Z,6.00
2023-01-13T11:10:55.855Z,6.00
2023-01-13T11:13:33.125Z,6.01
2023-01-13T11:16:07.037Z,6.07
2023-01-13T11:18:51.983Z,6.24
2023-01-13T11:21:25.748Z,6.36
2023-01-13T11:24:05.634Z,6.45
2023-01-13T11:26:44.920Z,6.42
2023-01-13T11:29:19.545Z,6.24
2023-01-13T11:31:52.545Z,6.12
2023-01-13T11:34:29.727Z,6.11
2023-01-13T11:37:01.618Z,6.11
2023-01-13T11:39:43.122Z,6.07
2023-01-13T11:42:24.134Z,6.03
2023-01-13T11:45:03.867Z,6.08
2023-01-13T11:47:35.017Z,6.19
2023-01-13T11:50:03.754Z,6.26
2023-01-13T11:52:45.869Z,6.27
2023-01-13T11:55:33.676Z,6.26
2023-01-13T11:58:28.989Z,6.32
2023-01-13T12:01:07.927Z,6.32
2023-01-13T12:03:43.105Z,6.34
2023-01-13T12:06:21.100Z,6.41
2023-01-13T12:09:06.001Z,6.51
2023-01-13T12:12:01.868Z,6.53
2023-01-13T12:14:42.724Z,6.49
2023-01-13T12:17:23.464Z,6.52
2023-01-13T12:19:52.992Z,6.62
2023-01-13T12:22:27.185Z,6.66
2023-01-13T12:25:05.287Z,6.64
2023-01-13T12:27:42.969Z,6.65
2023-01-13T12:30:23.570Z,6.67
2023-01-13T12:32:55.913Z,6.55
2023-01-13T12:35:38.023Z,6.53
2023-01-13T12:38:14.032Z,6.54
2023-01-13T12:40:55.594Z,6.49
2023-01-13T12:43:43.510Z,6.52
2023-01-13T12:46:46.695Z,6.55
2023-01-13T12:49:23.474Z,6.56
2023-01-13T12:52:19.987Z,6.53
2023-01-13T12:55:14.772Z,6.53
2023-01-13T12:57:58.136Z,6.62
2023-01-13T13:00:33.171Z,6.61
2023-01-13T13:03:24.677Z,6.58
2023-01-13T13:05:58.905Z,6.58
2023-01-13T13:08:44.010Z,6.58
2023-01-13T13:12:00.668Z,6.51
2023-01-13T13:15:06.833Z,6.50
2023-01-13T13:17:46.304Z,6.46
2023-01-13T13:20:50.631Z,6.46
2023-01-13T13:23:48.017Z,6.47
2023-01-13T13:26:25.054Z,6.46
2023-01-13T13:29:07.501Z,6.47
2023-01-13T13:31:53.144Z,6.43
2023-01-13T13:34:31.485Z,6.38
2023-01-13T13:37:12.185Z,6.41
2023-01-13T13:39:58.451Z,6.40
2023-01-13T13:42:46.244Z,6.38
2023-01-13T13:45:37.377Z,6.30
2023-01-13T13:48:25.948Z,6.30
2023-01-13T13:51:01.812Z,6.31
2023-01-13T13:53:34.123Z,6.36
2023-01-13T13:56:07.974Z,6.41
2023-01-13T13:58:37.267Z,6.43
2023-01-13T14:01:07.228Z,6.46
2023-01-13T14:03:39.842Z,6.46
2023-01-13T14:06:09.057Z,6.42
2023-01-13T14:08:39.499Z,6.43
2023-01-13T14:11:26.992Z,6.48
2023-01-13T14:14:03.342Z,6.52
2023-01-13T14:16:32.715Z,6.46
2023-01-13T14:19:01.398Z,6.37
2023-01-13T14:21:30.922Z,6.31
2023-01-13T14:24:04.641Z,6.31
2023-01-13T14:26:34.026Z,6.33
2023-01-13T14:29:03.417Z,6.31
2023-01-13T14:31:32.919Z,6.27
2023-01-13T14:34:32.962Z,6.22
2023-01-13T14:36:52.437Z,6.08
2023-01-13T14:39:35.215Z,5.99
2023-01-13T14:42:05.153Z,5.92
2023-01-13T14:44:36.023Z,5.90
2023-01-13T14:47:16.430Z,5.85
2023-01-13T14:49:58.868Z,5.79
2023-01-13T14:52:29.145Z,5.70
2023-01-13T14:55:22.280Z,5.65
2023-01-13T14:57:52.485Z,5.64
2023-01-13T15:00:24.589Z,5.66
2023-01-13T15:03:14.990Z,5.66
2023-01-13T15:05:49.313Z,5.67
2023-01-13T15:08:29.337Z,5.71
2023-01-13T15:11:00.970Z,5.71
2023-01-13T15:13:37.382Z,5.63
2023-01-13T15:16:07.945Z,5.55
2023-01-13T15:18:40.101Z,5.51
2023-01-13T15:21:09.326Z,5.46
2023-01-13T15:23:39.941Z,5.46
2023-01-13T15:26:19.992Z,5.48
2023-01-13T15:28:50.803Z,5.46
2023-01-13T15:31:19.767Z,5.43
2023-01-13T15:33:48.211Z,5.36
2023-01-13T15:36:22.441Z,5.28
2023-01-13T15:38:51.242Z,5.30
2023-01-13T15:41:39.877Z,5.32
2023-01-13T15:44:29.634Z,5.37
2023-01-13T15:46:59.564Z,5.42
2023-01-13T15:49:34.912Z,5.39
2023-01-13T15:52:04.407Z,5.29
2023-01-13T15:54:32.891Z,5.25
2023-01-13T15:57:01.295Z,5.24
2023-01-13T15:59:30.770Z,5.16
2023-01-13T16:01:59.079Z,5.16
2023-01-13T16:04:27.348Z,5.15
2023-01-13T16:06:55.686Z,5.02
2023-01-13T16:09:23.821Z,4.93
2023-01-13T16:11:52.101Z,4.90
2023-01-13T16:14:20.214Z,4.88
2023-01-13T16:16:49.743Z,4.83
2023-01-13T16:19:17.924Z,4.78
2023-01-13T16:21:46.386Z,4.76
2023-01-13T16:24:14.605Z,4.77
2023-01-13T16:26:42.879Z,4.79
2023-01-13T16:29:12.620Z,4.80
2023-01-13T16:31:41.054Z,4.74
2023-01-13T16:34:10.653Z,4.70
2023-01-13T16:36:38.984Z,4.67
2023-01-13T16:39:21.743Z,4.68
2023-01-13T16:41:50.003Z,4.64
2023-01-13T16:44:18.345Z,4.61
2023-01-13T16:46:47.645Z,4.59
2023-01-13T16:49:18.425Z,4.59
2023-01-13T16:51:46.772Z,4.56
2023-01-13T16:54:15.004Z,4.55
2023-01-13T16:56:43.271Z,4.56
2023-01-13T16:59:14.594Z,4.49
2023-01-13T17:01:45.064Z,4.45
2023-01-13T17:04:17.883Z,4.40
2023-01-13T17:06:52.979Z,4.37
2023-01-13T17:09:23.640Z,4.34
2023-01-13T17:11:51.861Z,4.29
2023-01-13T17:14:23.307Z,4.25
2023-01-13T17:16:53.104Z,4.24
2023-01-13T17:19:25.679Z,4.29
2023-01-13T17:21:54.167Z,4.27
2023-01-13T17:24:24.842Z,4.22
2023-01-13T17:26:57.394Z,4.23
2023-01-13T17:29:27.724Z,4.24
2023-01-13T17:31:56.462Z,4.23
2023-01-13T17:34:26.024Z,4.22
2023-01-13T17:36:54.415Z,4.19
2023-01-13T17:39:24.821Z,4.12
2023-01-13T17:41:55.965Z,4.08
2023-01-13T17:44:24.562Z,4.03
2023-01-13T17:46:52.651Z,4.00
2023-01-13T17:49:22.156Z,3.96
2023-01-13T17:51:53.046Z,3.98
2023-01-13T17:54:21.467Z,3.97
2023-01-13T17:56:49.632Z,3.95
2023-01-13T17:59:19.872Z,3.94
2023-01-13T18:01:48.277Z,3.86
2023-01-13T18:04:18.277Z,3.79
2023-01-13T18:06:46.611Z,3.67
2023-01-13T18:09:16.716Z,3.47
2023-01-13T18:11:46.523Z,3.31
2023-01-13T18:14:15.697Z,3.22
2023-01-13T18:16:44.327Z,3.24
2023-01-13T18:19:30.221Z,3.18
2023-01-13T18:22:15.833Z,3.15
2023-01-13T18:25:03.032Z,3.09
2023-01-13T18:27:33.949Z,3.03
2023-01-13T18:30:04.829Z,2.95
2023-01-13T18:32:34.073Z,2.90
2023-01-13T18:35:06.731Z,2.80
2023-01-13T18:37:38.632Z,2.62
2023-01-13T18:40:10.376Z,2.45
2023-01-13T18:42:56.479Z,2.29
2023-01-13T18:45:26.453Z,2.15
2023-01-13T18:47:57.172Z,2.01
2023-01-13T18:50:26.270Z,1.86
2023-01-13T18:52:54.642Z,1.79
2023-01-13T18:55:24.681Z,1.68
2023-01-13T18:57:53.682Z,1.56
2023-01-13T19:00:23.152Z,1.48
2023-01-13T19:05:35.794Z,1.23
2023-01-13T19:08:04.529Z,1.08
2023-01-13T19:10:34.113Z,1.14
2023-01-13T19:13:02.871Z,1.32
2023-01-13T19:15:31.656Z,1.59
2023-01-13T19:18:00.696Z,1.97
2023-01-13T19:20:29.026Z,2.40
2023-01-13T19:22:57.272Z,2.70
2023-01-13T19:25:25.545Z,2.90
2023-01-13T19:27:55.183Z,3.00
2023-01-13T19:30:23.306Z,3.07
2023-01-13T19:32:51.551Z,3.10
2023-01-13T19:35:20.205Z,3.14
2023-01-13T19:37:48.462Z,3.19
2023-01-13T19:40:17.312Z,3.24
2023-01-13T19:43:03.283Z,3.31
2023-01-13T19:45:35.354Z,3.34
2023-01-13T19:48:05.689Z,3.33
2023-01-13T19:50:37.497Z,3.34
2023-01-13T19:53:05.905Z,3.30
2023-01-13T19:55:34.238Z,3.30
2023-01-13T19:58:03.467Z,3.30
2023-01-13T20:00:33.397Z,3.30
2023-01-13T20:03:04.397Z,3.23
2023-01-13T20:05:32.973Z,3.12
2023-01-13T20:08:01.294Z,3.07
2023-01-13T20:10:31.438Z,3.08
2023-01-13T20:12:59.643Z,3.17
2023-01-13T20:15:28.052Z,3.21
2023-01-13T20:17:58.515Z,3.23
2023-01-13T20:20:27.542Z,3.22
2023-01-13T20:22:55.830Z,3.20
2023-01-13T20:25:24.250Z,3.16
2023-01-13T20:27:52.968Z,3.09
2023-01-13T20:30:21.412Z,3.01
2023-01-13T20:32:49.608Z,2.98
2023-01-13T20:35:19.397Z,2.93
2023-01-13T20:37:47.663Z,2.90
2023-01-13T20:40:18.446Z,2.71
2023-01-13T20:42:46.803Z,2.45
2023-01-13T20:45:20.841Z,2.32
2023-01-13T20:47:49.288Z,2.22
2023-01-13T20:50:19.436Z,2.18
2023-01-13T20:52:48.224Z,2.09
2023-01-13T20:55:16.792Z,2.03
2023-01-13T20:57:48.625Z,2.04
2023-01-13T21:00:17.762Z,2.05
2023-01-13T21:02:45.970Z,2.05
2023-01-13T21:05:14.523Z,2.03
2023-01-13T21:07:44.094Z,1.99
2023-01-13T21:10:12.531Z,1.90
2023-01-13T21:12:58.086Z,1.83
2023-01-13T21:15:27.508Z,1.79
2023-01-13T21:18:12.872Z,1.81
2023-01-13T21:20:41.274Z,1.98
2023-01-13T21:23:11.940Z,2.10
2023-01-13T21:25:40.695Z,2.21
2023-01-13T21:28:11.890Z,2.37
2023-01-13T21:30:40.885Z,2.48
2023-01-13T21:33:13.668Z,2.69
2023-01-13T21:35:42.656Z,2.85
2023-01-13T21:38:13.712Z,2.93
2023-01-13T21:40:42.063Z,2.94
2023-01-13T21:43:31.064Z,2.98
2023-01-13T21:46:16.722Z,3.02
2023-01-13T21:48:45.039Z,3.05
2023-01-13T21:51:13.230Z,3.09
2023-01-13T21:53:42.751Z,3.12
2023-01-13T21:56:10.909Z,3.15
2023-01-13T21:58:40.221Z,3.18
2023-01-13T22:01:09.797Z,3.16
2023-01-13T22:03:54.971Z,3.12
2023-01-13T22:06:23.434Z,3.13
2023-01-13T22:08:54.096Z,3.13
2023-01-13T22:11:22.771Z,3.15
2023-01-13T22:14:08.297Z,3.15
2023-01-13T22:16:39.574Z,3.14
2023-01-13T22:19:08.894Z,3.15
2023-01-13T22:21:37.678Z,3.14
2023-01-13T22:24:08.085Z,3.20
2023-01-13T22:26:36.441Z,3.22
2023-01-13T22:29:04.996Z,3.25
2023-01-13T22:31:33.425Z,3.26
2023-01-13T22:34:01.711Z,3.25
2023-01-13T22:36:30.010Z,3.26
2023-01-13T22:39:00.691Z,3.25
2023-01-13T22:41:30.407Z,3.27
2023-01-13T22:43:58.610Z,3.28
2023-01-13T22:46:26.940Z,3.28
2023-01-13T22:48:55.959Z,3.30
2023-01-13T22:51:26.601Z,3.30
2023-01-13T22:53:55.786Z,3.31
2023-01-13T22:56:25.780Z,3.27
2023-01-13T22:58:56.556Z,3.25
2023-01-13T23:01:25.633Z,3.24
2023-01-13T23:03:54.434Z,3.25
2023-01-13T23:06:24.679Z,3.25
2023-01-13T23:08:53.645Z,3.28
2023-01-13T23:11:24.727Z,3.27
2023-01-13T23:14:00.104Z,3.28
2023-01-13T23:16:30.692Z,3.34
2023-01-13T23:18:59.148Z,3.38
2023-01-13T23:21:30.095Z,3.41
2023-01-13T23:23:58.960Z,3.45
2023-01-13T23:26:28.269Z,3.47
2023-01-13T23:29:01.641Z,3.51
2023-01-13T23:31:30.079Z,3.52
2023-01-13T23:33:58.461Z,3.55
2023-01-13T23:36:28.097Z,3.57
2023-01-13T23:38:56.950Z,3.61
2023-01-13T23:41:26.895Z,3.63
2023-01-13T23:43:56.674Z,3.65
2023-01-13T23:46:27.416Z,3.69
2023-01-13T23:48:56.290Z,3.70
2023-01-13T23:51:26.219Z,3.71
2023-01-13T23:53:55.126Z,3.70
2023-01-13T23:56:25.513Z,3.68
2023-01-13T23:58:54.091Z,3.68
